Time;durP1;ratioP1;P1;durP2;ratioP2;P2;SDS_P1;SDS_P2;PMS_P1;PMS_P2;Temp;Humidity;BMP_temperature;BMP_pressure;BME280_temperature;BME280_humidity;BME280_pressure;Samples;Min_cycle;Max_cycle;Signal;HPM_P1;HPM_P2
2021/03/08 00:00:26;;;;;;;12.90;10.23;;;;;;;2.20;61.52;98693.83;1809066;78;21086;-40
2021/03/08 00:02:54;;;;;;;15.65;11.38;;;;;;;2.18;61.62;98696.81;1812772;78;21134;-40
2021/03/08 00:05:23;;;;;;;13.60;10.55;;;;;;;2.19;61.50;98685.02;1795679;78;21098;-40
2021/03/08 00:07:52;;;;;;;13.97;10.10;;;;;;;2.22;61.51;98692.17;1792987;78;21380;-40
2021/03/08 00:10:21;;;;;;;15.72;11.15;;;;;;;2.22;61.45;98689.50;1791569;78;20991;-40
2021/03/08 00:12:49;;;;;;;16.10;10.85;;;;;;;2.22;61.51;98676.13;1790812;78;21166;-40
2021/03/08 00:15:20;;;;;;;15.48;11.00;;;;;;;2.21;61.40;98679.91;1795686;78;21130;-40
2021/03/08 00:17:49;;;;;;;16.95;10.40;;;;;;;2.22;61.52;98668.90;1821267;78;21632;-40
2021/03/08 00:20:20;;;;;;;14.23;10.53;;;;;;;2.22;61.63;98677.47;1799668;78;21142;-40
2021/03/08 00:22:48;;;;;;;16.40;11.28;;;;;;;2.17;61.86;98671.20;1816597;78;21146;-40
2021/03/08 00:25:19;;;;;;;14.55;10.10;;;;;;;2.19;61.87;98664.96;1811872;78;21174;-40
2021/03/08 00:27:48;;;;;;;16.77;10.82;;;;;;;2.19;61.91;98666.30;1790357;78;21138;-40
2021/03/08 00:30:17;;;;;;;17.37;10.90;;;;;;;2.18;62.02;98664.72;1808470;78;21580;-40
2021/03/08 00:32:46;;;;;;;15.50;11.97;;;;;;;2.15;62.14;98656.56;1791052;78;21373;-40
2021/03/08 00:35:15;;;;;;;16.25;11.53;;;;;;;2.15;62.18;98650.67;1805368;78;21012;-40
2021/03/08 00:37:43;;;;;;;11.53;8.55;;;;;;;2.12;62.13;98637.95;1790723;78;21030;-40
2021/03/08 00:40:14;;;;;;;17.80;11.38;;;;;;;2.11;62.27;98643.06;1793160;78;21138;-40
2021/03/08 00:42:42;;;;;;;15.03;11.10;;;;;;;2.15;62.19;98639.97;1790686;78;21103;-40
2021/03/08 00:45:24;;;;;;;18.20;11.60;;;;;;;2.14;62.18;98641.07;1791596;78;22252;-40
2021/03/08 00:47:57;;;;;;;14.30;10.65;;;;;;;2.15;62.11;98635.96;1819682;78;21855;-40
2021/03/08 00:50:28;;;;;;;16.95;11.60;;;;;;;2.17;62.17;98633.77;1795091;78;21583;-40
2021/03/08 00:52:57;;;;;;;16.30;11.75;;;;;;;2.16;62.16;98630.85;1818438;78;21584;-40
2021/03/08 00:55:27;;;;;;;18.05;11.95;;;;;;;2.15;62.33;98629.28;1795232;78;21189;-40
2021/03/08 00:57:56;;;;;;;15.50;12.07;;;;;;;2.14;62.27;98630.38;1790419;78;21268;-40
2021/03/08 01:00:26;;;;;;;20.57;12.73;;;;;;;2.10;62.44;98634.02;1814120;78;21130;-40
2021/03/08 01:02:56;;;;;;;18.05;12.10;;;;;;;2.10;62.58;98626.78;1809118;78;20975;-40
2021/03/08 01:05:27;;;;;;;17.48;12.30;;;;;;;2.14;62.58;98620.23;1797853;78;21396;-40
2021/03/08 01:07:57;;;;;;;18.32;12.85;;;;;;;2.13;62.56;98623.45;1793053;79;21209;-40
2021/03/08 01:10:28;;;;;;;;;;;;;;;2.14;62.47;98614.34;1791782;79;21144;-40
2021/03/08 01:12:57;;;;;;;20.40;12.47;;;;;;;2.11;62.38;98602.95;1785052;79;20593;-40
2021/03/08 01:15:27;;;;;;;16.70;11.12;;;;;;;2.03;62.45;98604.34;1792562;78;21459;-40
2021/03/08 01:17:55;;;;;;;17.57;12.88;;;;;;;2.07;62.64;98599.91;1797644;78;21232;-41
2021/03/08 01:20:24;;;;;;;20.32;12.30;;;;;;;2.10;62.47;98598.70;1793535;79;21127;-41
2021/03/08 01:22:52;;;;;;;16.60;11.85;;;;;;;2.10;62.44;98587.23;1799841;79;23589;-41
2021/03/08 01:25:24;;;;;;;18.45;11.75;;;;;;;2.12;62.41;98593.05;1805756;79;21915;-41
2021/03/08 01:27:52;;;;;;;16.93;12.18;;;;;;;2.09;62.43;98585.10;1808703;79;21138;-41
2021/03/08 01:30:31;;;;;;;18.00;12.53;;;;;;;2.11;62.37;98596.27;1803213;79;21165;-41
2021/03/08 01:33:00;;;;;;;13.70;8.83;;;;;;;2.12;62.40;98589.83;1792934;79;21174;-41
2021/03/08 01:35:28;;;;;;;17.15;12.60;;;;;;;2.13;62.37;98586.02;1806987;78;21134;-41
2021/03/08 01:37:57;;;;;;;16.37;12.40;;;;;;;2.09;62.32;98587.78;1790827;79;21146;-41
2021/03/08 01:40:26;;;;;;;17.12;12.78;;;;;;;2.09;62.45;98587.78;1806294;79;21139;-41
2021/03/08 01:42:54;;;;;;;17.67;11.63;;;;;;;2.03;62.48;98579.70;1788484;79;21157;-41
2021/03/08 01:45:23;;;;;;;17.90;12.50;;;;;;;2.08;62.58;98596.90;1808481;79;21110;-41
2021/03/08 01:47:52;;;;;;;18.45;12.90;;;;;;;2.11;62.54;98590.14;1793998;79;21357;-41
2021/03/08 01:50:32;;;;;;;16.90;12.23;;;;;;;2.11;62.48;98592.81;1798009;79;21122;-40
2021/03/08 01:53:00;;;;;;;20.20;13.00;;;;;;;2.11;62.41;98585.58;1813382;79;21787;-41
2021/03/08 01:55:29;;;;;;;17.55;11.68;;;;;;;2.09;62.49;98587.78;1795389;79;21110;-41
2021/03/08 01:57:57;;;;;;;17.37;11.53;;;;;;;2.11;62.53;98591.48;1796976;77;21158;-41
2021/03/08 02:00:26;;;;;;;18.80;11.65;;;;;;;2.08;62.51;98588.88;1778315;77;21364;-41
2021/03/08 02:02:56;;;;;;;17.80;11.35;;;;;;;2.11;62.50;98583.45;1793103;79;21189;-41
2021/03/08 02:05:31;;;;;;;17.62;12.20;;;;;;;2.10;62.59;98582.67;1798887;78;21093;-41
2021/03/08 02:08:00;;;;;;;15.43;11.68;;;;;;;2.09;62.60;98593.13;1805265;78;21200;-41
2021/03/08 02:10:29;;;;;;;;;;;;;;;2.07;62.83;98583.33;1801592;78;21564;-41
2021/03/08 02:13:06;;;;;;;17.87;12.05;;;;;;;2.04;62.75;98582.61;1779843;79;21404;-41
2021/03/08 02:15:47;;;;;;;15.55;11.10;;;;;;;1.96;63.12;98590.13;1746029;80;21154;-41
2021/03/08 02:18:58;;;;;;;18.05;11.12;;;;;;;1.99;63.07;98588.14;1781615;80;21815;-41
2021/03/08 02:22:14;;;;;;;14.78;10.65;;;;;;;2.01;63.21;98589.95;1785220;79;21608;-41
2021/03/08 02:25:06;;;;;;;16.62;12.10;;;;;;;2.01;63.16;98581.93;1760860;80;21180;-41
2021/03/08 02:27:45;;;;;;;15.58;11.57;;;;;;;1.98;63.15;98579.91;1731531;81;22424;-41
2021/03/08 02:30:48;;;;;;;17.55;11.18;;;;;;;1.96;63.40;98576.77;1785975;79;21154;-41
2021/03/08 02:33:23;;;;;;;17.27;12.03;;;;;;;1.98;63.30;98583.13;1761020;80;21533;-41
2021/03/08 02:35:55;;;;;;;19.67;12.33;;;;;;;1.97;63.34;98580.22;1803293;79;21652;-41
2021/03/08 02:38:30;;;;;;;18.27;11.83;;;;;;;1.98;63.29;98582.58;1760103;81;21157;-41
2021/03/08 02:41:05;;;;;;;18.90;12.20;;;;;;;1.99;63.37;98587.34;1753433;80;22269;-41
2021/03/08 02:43:43;;;;;;;19.62;11.95;;;;;;;1.99;63.29;98580.12;1779466;80;21493;-41
2021/03/08 02:46:27;;;;;;;19.62;12.28;;;;;;;1.98;63.36;98581.25;1763233;80;21127;-41
2021/03/08 02:49:00;;;;;;;16.32;11.43;;;;;;;1.99;63.53;98577.99;1779296;79;21185;-41
2021/03/08 02:51:30;;;;;;;15.48;11.93;;;;;;;1.93;63.75;98574.74;1761437;80;21092;-41
2021/03/08 02:54:00;;;;;;;18.48;12.13;;;;;;;1.94;64.10;98573.61;1786574;79;26750;-41
2021/03/08 02:56:33;;;;;;;17.45;12.50;;;;;;;1.94;64.59;98574.95;1764191;80;21132;-41
2021/03/08 02:59:04;;;;;;;16.75;12.73;;;;;;;1.95;64.76;98584.55;1794860;79;21146;-41
2021/03/08 03:01:34;;;;;;;17.00;11.50;;;;;;;1.92;65.18;98582.52;1792220;80;21137;-41
2021/03/08 03:04:04;;;;;;;20.82;12.10;;;;;;;1.88;65.60;98582.94;1755709;81;21719;-41
2021/03/08 03:06:36;;;;;;;16.20;12.00;;;;;;;1.88;66.26;98582.94;1780006;79;21370;-41
2021/03/08 03:09:07;;;;;;;17.92;12.80;;;;;;;1.79;67.01;98583.53;1779890;79;21051;-41
2021/03/08 03:11:38;;;;;;;17.05;12.40;;;;;;;1.74;66.93;98581.79;1779863;79;21047;-41
2021/03/08 03:14:06;;;;;;;17.32;12.70;;;;;;;1.69;67.08;98582.54;1784506;79;21143;-41
2021/03/08 03:16:34;;;;;;;17.30;12.53;;;;;;;1.71;66.84;98588.33;1806530;79;21130;-41
2021/03/08 03:19:03;;;;;;;16.17;12.13;;;;;;;1.69;66.87;98586.55;1794959;79;21374;-41
2021/03/08 03:21:33;;;;;;;16.95;11.80;;;;;;;1.72;66.75;98583.23;1783223;79;21464;-41
2021/03/08 03:24:04;;;;;;;19.20;12.30;;;;;;;1.69;66.50;98577.20;1788294;79;21008;-41
2021/03/08 03:26:33;;;;;;;19.30;12.68;;;;;;;1.70;66.31;98585.42;1788059;77;21130;-40
2021/03/08 03:29:03;;;;;;;18.00;12.63;;;;;;;1.72;66.19;98583.23;1795747;79;21158;-40
2021/03/08 03:31:32;;;;;;;;;;;;;;;1.61;66.04;98557.95;1814134;79;21425;-40
2021/03/08 03:34:01;;;;;;;15.98;11.78;;;;;;;1.75;65.76;98584.70;1807696;79;20231;-40
2021/03/08 03:36:31;;;;;;;18.10;12.55;;;;;;;1.68;66.03;98582.30;1779516;79;21150;-40
2021/03/08 03:38:59;;;;;;;18.27;11.40;;;;;;;1.74;66.06;98577.02;1794217;79;21419;-40
2021/03/08 03:41:27;;;;;;;18.12;12.20;;;;;;;1.74;65.86;98574.34;1787022;77;21433;-40
2021/03/08 03:43:55;;;;;;;16.67;11.97;;;;;;;1.44;65.77;98523.30;1785176;79;21278;-40
2021/03/08 03:46:24;;;;;;;16.97;11.78;;;;;;;1.77;65.83;98579.59;1783420;77;21181;-40
2021/03/08 03:48:53;;;;;;;18.27;12.47;;;;;;;1.78;65.99;98579.28;1752909;81;21604;-40
2021/03/08 03:51:23;;;;;;;17.77;13.30;;;;;;;1.73;66.38;98580.24;1779429;79;21154;-40
2021/03/08 03:53:51;;;;;;;16.85;12.30;;;;;;;1.74;66.71;98582.36;1757542;81;21133;-40
2021/03/08 03:56:19;;;;;;;19.27;12.88;;;;;;;1.69;67.35;98585.97;1789078;79;21398;-40
2021/03/08 03:59:00;;;;;;;16.55;12.65;;;;;;;1.66;67.80;98596.52;1784476;80;21714;-40
2021/03/08 04:01:36;;;;;;;16.55;13.35;;;;;;;1.67;68.14;98583.39;1741644;80;21414;-40
2021/03/08 04:06:19;;;;;;;18.20;13.32;;;;;;;1.70;68.53;98586.20;1873855;76;22817;-39
2021/03/08 04:08:49;;;;;;;19.62;13.20;;;;;;;1.58;68.88;98584.77;1835582;77;20964;-39
2021/03/08 04:11:17;;;;;;;;;;;;;;;1.60;69.04;98596.45;1825785;77;21453;-39
2021/03/08 04:13:45;;;;;;;18.98;12.37;;;;;;;1.22;69.02;98529.08;1840270;77;20194;-39
2021/03/08 04:16:15;;;;;;;16.65;11.97;;;;;;;1.50;69.31;98588.80;1840814;77;21054;-39
2021/03/08 04:18:44;;;;;;;;;;;;;;;1.56;69.31;98588.84;1858667;77;21023;-39
2021/03/08 04:21:12;;;;;;;20.27;12.90;;;;;;;1.61;69.24;98587.34;1840774;77;20544;-39
2021/03/08 04:23:40;;;;;;;20.15;12.88;;;;;;;1.15;69.38;98517.34;1833119;77;21340;-39
2021/03/08 04:26:09;;;;;;;20.02;12.98;;;;;;;1.56;69.30;98578.16;1832466;77;20968;-39
2021/03/08 04:28:38;;;;;;;19.70;11.60;;;;;;;1.57;69.23;98583.19;1842916;77;21004;-39
2021/03/08 04:31:07;;;;;;;;;;;;;;;1.57;69.17;98585.08;1850543;77;21126;-39
2021/03/08 04:33:35;;;;;;;19.65;13.25;;;;;;;1.54;69.27;98580.38;1824698;77;20259;-39
2021/03/08 04:36:05;;;;;;;18.73;13.70;;;;;;;1.44;69.56;98593.53;1838788;77;22024;-39
2021/03/08 04:38:34;;;;;;;17.87;12.88;;;;;;;1.46;69.54;98589.18;1838353;77;21012;-39
2021/03/08 04:41:02;;;;;;;16.75;12.33;;;;;;;1.48;69.45;98589.11;1806270;78;21584;-39
2021/03/08 04:43:30;;;;;;;19.25;12.93;;;;;;;1.54;69.25;98583.05;1827291;77;21011;-39
2021/03/08 04:45:59;;;;;;;19.17;12.78;;;;;;;1.55;69.18;98580.63;1822850;78;21114;-39
2021/03/08 04:48:27;;;;;;;16.17;12.23;;;;;;;1.61;69.01;98583.33;1838686;77;21255;-39
2021/03/08 04:50:55;;;;;;;19.35;12.37;;;;;;;1.62;68.96;98579.56;1835063;77;21153;-39
2021/03/08 04:53:24;;;;;;;17.17;12.47;;;;;;;1.65;68.96;98586.93;1822715;77;21150;-39
2021/03/08 04:55:52;;;;;;;20.95;13.10;;;;;;;1.67;68.98;98582.06;1846962;77;21122;-39
2021/03/08 04:58:21;;;;;;;15.25;11.38;;;;;;;1.70;68.87;98584.88;1801264;78;21134;-39
2021/03/08 05:00:49;;;;;;;18.48;12.68;;;;;;;1.71;68.79;98589.66;1788878;78;21278;-39
2021/03/08 05:03:18;;;;;;;17.05;12.23;;;;;;;1.73;68.69;98588.26;1800071;78;21148;-39
2021/03/08 05:05:46;;;;;;;15.83;12.15;;;;;;;1.78;68.67;98587.84;1809203;78;21144;-39
2021/03/08 05:08:14;;;;;;;16.93;11.78;;;;;;;1.78;68.61;98584.63;1742867;79;21171;-39
2021/03/08 05:10:42;;;;;;;16.75;12.30;;;;;;;1.79;68.68;98592.88;1779202;80;21134;-39
2021/03/08 05:13:11;;;;;;;20.48;12.53;;;;;;;1.77;68.74;98597.75;1757398;80;21420;-39
2021/03/08 05:15:39;;;;;;;18.35;12.73;;;;;;;1.75;68.92;98603.95;1795195;79;21133;-39
2021/03/08 05:18:08;;;;;;;15.18;11.25;;;;;;;1.75;69.11;98611.97;1786070;80;21200;-39
2021/03/08 05:20:38;;;;;;;15.63;11.38;;;;;;;1.72;69.40;98606.72;1794757;79;20986;-39
2021/03/08 05:23:06;;;;;;;15.68;11.35;;;;;;;1.75;69.36;98607.95;1817341;78;21146;-39
2021/03/08 05:25:35;;;;;;;18.25;12.85;;;;;;;1.77;69.34;98606.31;1818367;78;21301;-39
2021/03/08 05:28:04;;;;;;;17.25;12.30;;;;;;;1.74;69.31;98605.84;1816876;78;21154;-39
2021/03/08 05:30:32;;;;;;;17.17;11.73;;;;;;;1.75;69.42;98609.30;1806763;78;21554;-39
2021/03/08 05:33:10;;;;;;;10.82;7.92;;;;;;;1.77;69.50;98637.05;1782384;78;21114;-39
2021/03/08 05:35:39;;;;;;;4.95;4.03;;;;;;;1.79;69.13;98642.31;1806255;78;21545;-39
2021/03/08 05:38:07;;;;;;;6.30;2.98;;;;;;;1.81;66.86;98654.80;1760186;81;22127;-39
2021/03/08 05:41:06;;;;;;;4.42;2.90;;;;;;;1.76;65.50;98653.63;1791477;79;21071;-39
2021/03/08 05:43:36;;;;;;;4.87;2.15;;;;;;;1.69;64.96;98668.04;1772296;80;21176;-39
2021/03/08 05:46:09;;;;;;;4.53;2.23;;;;;;;1.59;64.63;98665.15;1782560;79;21199;-39
2021/03/08 05:49:04;;;;;;;5.60;1.70;;;;;;;1.50;64.38;98660.34;1811510;79;21115;-39
2021/03/08 05:51:53;;;;;;;2.20;1.20;;;;;;;1.44;63.57;98664.84;1802349;79;21196;-39
2021/03/08 05:54:57;;;;;;;2.58;1.40;;;;;;;1.37;62.62;98664.53;1801050;79;21450;-39
2021/03/08 05:57:38;;;;;;;2.30;1.25;;;;;;;1.34;62.13;98665.95;1797707;79;21668;-39
2021/03/08 06:00:35;;;;;;;1.80;1.17;;;;;;;1.33;61.86;98679.61;1794878;80;21518;-39
2021/03/08 06:03:39;;;;;;;3.15;1.20;;;;;;;1.31;60.38;98680.70;1793083;78;21118;-39
2021/03/08 06:06:40;;;;;;;2.75;1.02;;;;;;;1.29;60.55;98681.59;1792857;78;22657;-39
2021/03/08 06:09:28;;;;;;;2.08;1.20;;;;;;;1.25;59.77;98682.53;1747504;81;21135;-39
2021/03/08 06:12:12;;;;;;;1.67;1.12;;;;;;;1.17;59.54;98682.75;1748151;80;21174;-39
2021/03/08 06:14:42;;;;;;;2.20;1.10;;;;;;;1.20;59.89;98695.49;1777890;78;21597;-39
2021/03/08 06:17:16;;;;;;;2.33;0.82;;;;;;;1.25;59.28;98692.67;1808608;78;21142;-40
2021/03/08 06:19:45;;;;;;;2.37;1.30;;;;;;;1.29;59.25;98698.16;1786438;80;21208;-39
2021/03/08 06:22:15;;;;;;;2.80;1.40;;;;;;;1.33;58.87;98698.30;1764059;80;21600;-39
2021/03/08 06:24:44;;;;;;;5.33;1.75;;;;;;;1.36;59.31;98708.34;1808252;78;20992;-40
2021/03/08 06:27:14;;;;;;;4.22;2.10;;;;;;;1.43;59.14;98701.45;1808200;78;21589;-39
2021/03/08 06:29:44;;;;;;;10.53;3.98;;;;;;;1.47;59.77;98705.61;1789000;80;21202;-40
2021/03/08 06:32:12;;;;;;;4.22;1.80;;;;;;;1.56;59.46;98713.06;1803649;78;21200;-40
2021/03/08 06:34:40;;;;;;;3.25;1.30;;;;;;;1.60;59.48;98726.02;1804051;78;21604;-39
2021/03/08 06:37:11;;;;;;;3.33;1.10;;;;;;;1.60;59.27;98724.68;1762347;80;21017;-39
2021/03/08 06:39:45;;;;;;;3.22;1.07;;;;;;;1.57;58.95;98727.45;1808137;78;21147;-40
2021/03/08 06:42:15;;;;;;;3.12;1.30;;;;;;;1.57;58.57;98725.32;1785889;80;21117;-40
2021/03/08 06:44:47;;;;;;;2.87;1.27;;;;;;;1.54;58.28;98727.30;1781930;80;21214;-39
2021/03/08 06:47:16;;;;;;;3.72;1.20;;;;;;;1.53;58.49;98730.52;1786573;79;21764;-39
2021/03/08 06:49:45;;;;;;;3.63;1.37;;;;;;;1.49;58.59;98728.80;1770696;80;21056;-39
2021/03/08 06:52:15;;;;;;;1.82;1.40;;;;;;;1.50;58.80;98738.38;1778176;79;21192;-40
2021/03/08 06:54:47;;;;;;;2.72;1.37;;;;;;;1.51;58.83;98741.27;1778370;79;21154;-40
2021/03/08 06:57:29;;;;;;;1.72;1.00;;;;;;;1.52;58.57;98740.17;1777559;79;21211;-40
2021/03/08 07:00:13;;;;;;;4.00;1.30;;;;;;;1.48;57.60;98745.37;1782607;79;21032;-40
2021/03/08 07:02:47;;;;;;;2.05;1.15;;;;;;;1.43;57.98;98736.72;1774746;79;21160;-40
2021/03/08 07:05:26;;;;;;;2.98;1.30;;;;;;;1.38;58.55;98743.55;1780409;79;21533;-40
2021/03/08 07:07:58;;;;;;;2.80;1.20;;;;;;;1.38;57.95;98743.55;1742257;81;21175;-41
2021/03/08 07:10:38;;;;;;;2.35;1.20;;;;;;;1.40;58.30;98736.81;1747137;80;22044;-40
2021/03/08 07:13:08;;;;;;;3.33;1.40;;;;;;;1.45;58.33;98738.53;1779801;80;21102;-40
2021/03/08 07:15:59;;;;;;;3.17;0.65;;;;;;;1.47;57.31;98741.66;1782421;80;21193;-40
2021/03/08 07:18:29;;;;;;;3.40;1.10;;;;;;;1.50;56.88;98739.72;1734713;81;21130;-40
2021/03/08 07:21:19;;;;;;;1.40;0.80;;;;;;;1.57;57.19;98742.14;1730460;82;21162;-40
2021/03/08 07:23:49;;;;;;;2.70;0.90;;;;;;;1.68;56.56;98734.59;1778051;80;21365;-40
2021/03/08 07:26:20;;;;;;;1.77;1.30;;;;;;;1.71;56.15;98736.63;1775465;80;21570;-40
2021/03/08 07:29:12;;;;;;;2.67;1.30;;;;;;;1.72;56.64;98723.50;1773834;80;21632;-40
2021/03/08 07:31:45;;;;;;;1.80;1.15;;;;;;;1.80;56.62;98733.39;1760438;79;21117;-40
2021/03/08 07:34:15;;;;;;;2.30;1.30;;;;;;;1.85;56.68;98741.24;1766911;80;21143;-40
2021/03/08 07:36:59;;;;;;;2.75;1.00;;;;;;;1.94;55.95;98746.56;1760880;79;22293;-40
2021/03/08 07:39:27;;;;;;;3.08;1.20;;;;;;;1.93;54.22;98740.47;1755042;80;21187;-40
2021/03/08 07:42:09;;;;;;;2.02;1.02;;;;;;;1.89;54.14;98752.86;1765775;80;21160;-40
2021/03/08 07:44:49;;;;;;;1.85;0.95;;;;;;;1.83;53.46;98761.38;1769027;80;21135;-40
2021/03/08 07:47:19;;;;;;;;;;;;;;;1.85;53.22;98757.27;1773002;80;21146;-40
2021/03/08 07:49:47;;;;;;;;;;;;;;;1.92;52.96;98753.59;1780646;80;21199;-40
2021/03/08 07:52:19;;;;;;;2.70;1.10;;;;;;;2.05;53.57;98755.83;1772875;80;20301;-40
2021/03/08 07:55:02;;;;;;;4.37;1.15;;;;;;;2.28;52.79;98752.38;1769404;80;21142;-40
2021/03/08 07:57:30;;;;;;;1.95;1.00;;;;;;;2.57;51.98;98739.06;1771376;80;21162;-40
2021/03/08 08:00:00;;;;;;;2.35;1.02;;;;;;;2.84;51.04;98749.34;1758091;80;21612;-40
2021/03/08 08:02:28;;;;;;;3.10;1.02;;;;;;;3.08;50.32;98746.60;1769464;80;21447;-40
2021/03/08 08:04:59;;;;;;;1.62;0.98;;;;;;;3.25;49.54;98757.20;1776736;80;21198;-40
2021/03/08 08:07:27;;;;;;;3.10;1.25;;;;;;;3.42;46.95;98743.69;1781956;79;21416;-40
2021/03/08 08:09:56;;;;;;;1.15;0.80;;;;;;;3.40;46.28;98757.95;1781684;80;21210;-40
2021/03/08 08:15:09;;;;;;;2.42;1.12;;;;;;;3.35;46.47;98745.55;1830696;78;22673;-39
2021/03/08 08:17:39;;;;;;;2.92;1.35;;;;;;;3.48;46.57;98753.11;1777504;79;20980;-39
2021/03/08 08:20:10;;;;;;;2.23;1.40;;;;;;;3.63;45.18;98748.47;1776440;80;21352;-39
2021/03/08 08:22:44;;;;;;;1.65;1.05;;;;;;;3.72;44.42;98751.10;1776198;80;21039;-39
2021/03/08 08:25:15;;;;;;;1.50;0.90;;;;;;;3.69;45.40;98755.20;1801647;79;21307;-39
2021/03/08 08:27:44;;;;;;;5.45;1.15;;;;;;;3.69;45.17;98749.84;1795627;79;21604;-39
2021/03/08 08:30:15;;;;;;;2.87;1.07;;;;;;;3.73;45.01;98741.38;1779441;79;20980;-39
2021/03/08 08:32:57;;;;;;;;;;;;;;;3.79;43.60;98745.42;1779481;79;21400;-39
2021/03/08 08:35:29;;;;;;;2.67;1.00;;;;;;;3.94;43.08;98746.16;1781026;77;20224;-40
2021/03/08 08:38:16;;;;;;;2.10;1.12;;;;;;;3.98;43.05;98734.75;1785448;77;21679;-39
2021/03/08 08:40:44;;;;;;;2.45;1.10;;;;;;;4.12;43.46;98735.23;1785450;77;21166;-39
2021/03/08 08:43:20;;;;;;;0.88;0.70;;;;;;;4.28;41.95;98742.89;1781841;79;22225;-39
2021/03/08 08:45:52;;;;;;;3.83;1.32;;;;;;;4.34;41.55;98741.56;1785636;77;21278;-39
2021/03/08 08:48:21;;;;;;;2.47;1.27;;;;;;;4.46;41.62;98737.54;1780508;79;22209;-39
2021/03/08 08:50:52;;;;;;;;;;;;;;;4.58;42.19;98742.94;1755043;80;21011;-39
2021/03/08 08:53:38;;;;;;;1.55;1.00;;;;;;;4.72;41.95;98743.39;1793733;79;20160;-40
2021/03/08 08:56:07;;;;;;;2.12;0.90;;;;;;;4.78;42.13;98739.38;1793779;79;21107;-40
2021/03/08 08:58:52;;;;;;;3.08;0.90;;;;;;;4.97;41.65;98744.17;1798104;79;21206;-40
2021/03/08 09:01:35;;;;;;;1.40;0.98;;;;;;;5.08;40.41;98745.26;1782562;79;21111;-40
2021/03/08 09:04:02;;;;;;;2.15;1.05;;;;;;;5.15;40.72;98751.42;1784445;77;21617;-40
2021/03/08 09:06:53;;;;;;;1.13;0.83;;;;;;;5.27;40.86;98750.07;1797906;79;21027;-40
2021/03/08 09:09:38;;;;;;;0.93;0.70;;;;;;;5.42;38.59;98747.23;1787202;77;21047;-40
2021/03/08 09:12:10;;;;;;;3.15;0.98;;;;;;;5.51;38.46;98752.70;1776263;79;21374;-40
2021/03/08 09:14:47;;;;;;;1.85;0.80;;;;;;;5.66;38.48;98767.34;1802828;79;21158;-40
2021/03/08 09:17:29;;;;;;;0.98;0.60;;;;;;;5.95;38.19;98760.88;1790013;79;21170;-40
2021/03/08 09:20:03;;;;;;;1.00;0.80;;;;;;;6.32;38.17;98754.17;1793563;79;21211;-41
2021/03/08 09:22:52;;;;;;;1.87;1.22;;;;;;;6.60;34.39;98760.83;1792611;79;21204;-40
2021/03/08 09:25:25;;;;;;;1.67;0.75;;;;;;;6.48;34.75;98763.05;1791783;79;21443;-41
2021/03/08 09:28:04;;;;;;;0.72;0.60;;;;;;;6.28;34.67;98774.05;1792022;79;21074;-41
2021/03/08 09:30:37;;;;;;;2.33;1.20;;;;;;;6.18;35.38;98769.95;1795412;79;21106;-40
2021/03/08 09:33:09;;;;;;;1.90;0.68;;;;;;;5.99;35.67;98766.56;1799929;79;21585;-40
2021/03/08 09:35:48;;;;;;;2.15;0.78;;;;;;;5.93;35.97;98756.39;1787916;79;21616;-40
2021/03/08 09:38:25;;;;;;;1.22;0.88;;;;;;;5.98;35.73;98765.55;1803408;79;21264;-40
2021/03/08 09:40:57;;;;;;;1.37;0.80;;;;;;;6.16;35.25;98765.47;1803891;79;21150;-40
2021/03/08 09:43:35;;;;;;;0.95;0.70;;;;;;;6.33;34.97;98767.07;1795569;77;20992;-40
2021/03/08 09:46:13;;;;;;;1.20;0.80;;;;;;;6.49;33.83;98765.16;1794856;79;21684;-40
2021/03/08 09:48:43;;;;;;;1.65;0.80;;;;;;;6.63;34.85;98766.10;1791438;77;21794;-40
2021/03/08 09:51:15;;;;;;;1.30;0.88;;;;;;;6.82;33.16;98763.49;1792546;79;22237;-41
2021/03/08 09:53:48;;;;;;;1.05;0.80;;;;;;;6.87;32.91;98758.59;1803515;77;21031;-40
2021/03/08 09:56:20;;;;;;;1.10;0.75;;;;;;;6.79;33.36;98766.86;1797062;79;21170;-40
2021/03/08 09:59:03;;;;;;;0.85;0.75;;;;;;;6.71;34.35;98765.14;1787568;79;21197;-41
2021/03/08 10:01:33;;;;;;;1.87;1.00;;;;;;;6.63;34.79;98759.37;1791266;77;21034;-40
2021/03/08 10:04:02;;;;;;;0.57;0.55;;;;;;;6.66;34.71;98762.70;1797112;79;22293;-40
2021/03/08 10:06:33;;;;;;;1.90;1.00;;;;;;;6.63;35.66;98764.75;1792830;79;21200;-40
2021/03/08 10:09:21;;;;;;;1.40;1.22;;;;;;;6.52;34.85;98767.96;1758445;80;21035;-40
2021/03/08 10:12:01;;;;;;;2.52;0.80;;;;;;;6.29;34.69;98771.02;1806490;79;21442;-40
2021/03/08 10:14:30;;;;;;;0.82;0.72;;;;;;;6.20;34.64;98766.34;1783054;79;21179;-41
2021/03/08 10:17:10;;;;;;;1.67;0.93;;;;;;;6.12;34.07;98764.59;1783098;79;22804;-40
2021/03/08 10:19:42;;;;;;;1.65;0.90;;;;;;;6.04;34.45;98772.27;1718160;83;21170;-41
2021/03/08 10:22:10;;;;;;;1.80;1.00;;;;;;;6.04;34.06;98770.92;1688703;82;21641;-40
2021/03/08 10:24:42;;;;;;;1.52;1.15;;;;;;;6.06;34.29;98767.30;1717751;83;21198;-40
2021/03/08 10:27:12;;;;;;;1.12;0.82;;;;;;;5.99;34.25;98773.86;1753784;81;21207;-40
2021/03/08 10:29:41;;;;;;;1.77;0.80;;;;;;;5.74;34.20;98774.47;1709556;82;21231;-40
2021/03/08 10:32:11;;;;;;;2.58;1.00;;;;;;;5.48;35.08;98768.16;1718342;82;21167;-40
2021/03/08 10:34:39;;;;;;;1.42;0.82;;;;;;;5.25;36.14;98772.45;1724994;82;21203;-40
2021/03/08 10:37:10;;;;;;;2.20;1.00;;;;;;;5.06;36.17;98760.95;1720037;82;21206;-41
2021/03/08 10:39:39;;;;;;;3.17;1.60;;;;;;;4.91;37.06;98759.50;1714154;82;21474;-40
2021/03/08 10:42:08;;;;;;;1.50;1.10;;;;;;;4.83;37.30;98765.77;1710796;82;21216;-40
2021/03/08 10:44:37;;;;;;;2.50;0.90;;;;;;;4.75;37.53;98758.03;1718398;83;21016;-40
2021/03/08 10:47:16;;;;;;;0.90;0.80;;;;;;;4.67;37.86;98760.27;1721835;82;21671;-41
2021/03/08 10:49:51;;;;;;;2.30;1.00;;;;;;;4.60;37.84;98760.06;1723389;83;22279;-41
2021/03/08 10:52:20;;;;;;;1.27;1.00;;;;;;;4.58;38.06;98756.36;1726851;82;21566;-40
2021/03/08 10:54:48;;;;;;;2.40;1.00;;;;;;;4.52;37.88;98754.22;1727207;82;21216;-40
2021/03/08 10:57:20;;;;;;;1.37;0.85;;;;;;;4.41;37.04;98753.86;1726021;82;21232;-40
2021/03/08 10:59:50;;;;;;;1.80;1.07;;;;;;;4.36;36.65;98751.39;1728003;82;21622;-40
2021/03/08 11:02:18;;;;;;;1.47;0.78;;;;;;;4.32;37.57;98756.64;1725809;81;21496;-41
2021/03/08 11:04:50;;;;;;;1.85;0.90;;;;;;;4.34;38.13;98758.45;1727040;82;21176;-40
2021/03/08 11:07:33;;;;;;;2.95;0.95;;;;;;;4.38;37.70;98758.56;1790328;79;21273;-40
2021/03/08 11:10:06;;;;;;;1.42;0.80;;;;;;;4.32;36.93;98762.02;1769603;79;21075;-41
2021/03/08 11:12:34;;;;;;;;;;;;;;;4.23;37.64;98765.91;1769678;79;21047;-40
2021/03/08 11:15:04;;;;;;;1.47;0.68;;;;;;;4.12;37.76;98766.87;1774268;79;20275;-40
2021/03/08 11:17:43;;;;;;;2.55;1.07;;;;;;;3.99;37.69;98760.47;1732916;82;21178;-40
2021/03/08 11:20:25;;;;;;;1.77;1.00;;;;;;;4.00;37.39;98763.38;1711785;82;21976;-40
2021/03/08 11:23:02;;;;;;;1.00;0.80;;;;;;;3.96;37.88;98761.13;1726232;83;21609;-41
2021/03/08 11:25:41;;;;;;;1.67;1.10;;;;;;;3.89;37.91;98757.08;1722581;82;21059;-40
2021/03/08 11:28:18;;;;;;;2.10;1.10;;;;;;;3.81;37.62;98763.31;1781727;78;21150;-41
2021/03/08 11:30:50;;;;;;;1.22;0.88;;;;;;;3.69;38.15;98765.14;1778982;79;21167;-40
2021/03/08 11:33:21;;;;;;;1.50;0.90;;;;;;;3.65;38.73;98762.34;1783662;79;23520;-40
2021/03/08 11:35:52;;;;;;;2.17;1.13;;;;;;;3.58;38.82;98766.67;1778233;78;21057;-40
2021/03/08 11:38:24;;;;;;;1.55;1.00;;;;;;;3.50;39.23;98761.03;1783016;79;21150;-40
2021/03/08 11:40:53;;;;;;;2.90;1.30;;;;;;;3.46;39.80;98764.70;1764992;79;21126;-40
2021/03/08 11:43:23;;;;;;;2.45;1.15;;;;;;;3.43;40.14;98765.36;1765440;79;21170;-45
2021/03/08 11:45:52;;;;;;;1.27;0.85;;;;;;;3.43;39.61;98762.69;1767510;79;22282;-40
2021/03/08 11:48:25;;;;;;;2.45;1.45;;;;;;;3.41;40.03;98760.88;1765276;79;21134;-40
2021/03/08 11:50:54;;;;;;;2.27;1.10;;;;;;;3.38;39.83;98773.59;1765219;79;21306;-40
2021/03/08 11:53:29;;;;;;;2.12;1.05;;;;;;;3.40;40.10;98770.80;1783417;79;21127;-40
2021/03/08 11:55:59;;;;;;;1.57;1.07;;;;;;;3.42;39.81;98771.27;1779694;79;21182;-40
2021/03/08 11:58:27;;;;;;;3.45;1.02;;;;;;;3.37;38.88;98768.78;1776809;79;21271;-40
2021/03/08 12:01:00;;;;;;;1.92;1.07;;;;;;;3.31;39.37;98775.98;1780955;78;21444;-40
2021/03/08 12:03:29;;;;;;;1.67;0.95;;;;;;;3.27;39.70;98771.06;1750528;79;21644;-40
2021/03/08 12:05:57;;;;;;;2.40;1.10;;;;;;;3.26;40.09;98776.97;1781624;79;21142;-40
2021/03/08 12:08:28;;;;;;;2.62;1.10;;;;;;;3.30;39.66;98777.09;1707325;82;21154;-40